Woodside, Louisiana
Current Conditions -  °F | °C
As of 9:35 AM on Thursday 30 Oct 2014 (Local Time) from KHZR Reporting Station
Clear Clear  
Wind Chill: 61°   Ceiling: Unl
Heat Index: 61°   Visibility: 10mi
Dew Point: 47°   Wind: 5mph
Humidity: 59%   Direction: 50°NE
Pressure: 30.16"   Gusts: NA
Location:  30.6648°N, 91.7944°W
Report Text: KHZR 301435Z AUTO 05004KT 10SM CLR 16/08 A3016 RMK AO2 T01610081
Loading
Personal Weather Stations






























Interactive Weather Map
Tropical Storm Tracking
New forecast layout! Learn more

10-Day Weather Forecast

Advertisements
Track Severe Weather on mobile